createdAt,value
2018-09-14T00:01:06.916Z,20.10
2018-09-14T00:03:09.941Z,20.00
2018-09-14T00:05:13.611Z,20.00
2018-09-14T00:07:16.478Z,20.00
2018-09-14T00:09:19.413Z,20.00
2018-09-14T00:11:22.293Z,20.00
2018-09-14T00:13:25.169Z,20.00
2018-09-14T00:15:28.109Z,20.00
2018-09-14T00:17:31.003Z,20.00
2018-09-14T00:19:35.443Z,20.00
2018-09-14T00:21:39.212Z,20.00
2018-09-14T00:23:42.076Z,20.00
2018-09-14T00:25:44.963Z,20.00
2018-09-14T00:27:47.840Z,20.00
2018-09-14T00:29:50.833Z,20.00
2018-09-14T00:31:53.701Z,20.00
2018-09-14T00:33:56.702Z,20.00
2018-09-14T00:36:00.401Z,20.00
2018-09-14T00:38:03.277Z,20.00
2018-09-14T00:40:06.153Z,20.00
2018-09-14T00:42:09.025Z,20.00
2018-09-14T00:44:12.677Z,20.00
2018-09-14T00:46:16.325Z,20.00
2018-09-14T00:48:19.209Z,20.00
2018-09-14T00:50:22.101Z,20.00
2018-09-14T00:52:25.111Z,19.90
2018-09-14T00:54:28.747Z,19.90
2018-09-14T00:56:31.641Z,19.90
2018-09-14T00:58:34.528Z,19.90
2018-09-14T01:00:37.431Z,19.90
2018-09-14T01:02:41.866Z,19.90
2018-09-14T01:04:45.785Z,19.90
2018-09-14T01:06:49.468Z,19.90
2018-09-14T01:08:52.450Z,19.80
2018-09-14T01:10:55.402Z,19.80
2018-09-14T01:12:58.327Z,19.90
2018-09-14T01:15:02.752Z,19.70
2018-09-14T01:17:06.577Z,19.70
2018-09-14T01:19:09.502Z,19.70
2018-09-14T01:21:12.436Z,19.70
2018-09-14T01:23:15.411Z,19.60
2018-09-14T01:25:18.342Z,19.60
2018-09-14T01:27:21.263Z,19.60
2018-09-14T01:29:24.983Z,19.60
2018-09-14T01:31:27.909Z,19.60
2018-09-14T01:33:30.857Z,19.60
2018-09-14T01:35:33.822Z,19.60
2018-09-14T01:37:36.742Z,19.60
2018-09-14T01:39:39.679Z,19.50
2018-09-14T01:41:43.476Z,19.50
2018-09-14T01:43:46.418Z,19.50
2018-09-14T01:45:49.359Z,19.50
2018-09-14T01:47:52.310Z,19.60
2018-09-14T01:49:55.997Z,19.60
2018-09-14T01:51:58.912Z,19.60
2018-09-14T01:54:01.914Z,19.60
2018-09-14T01:56:04.825Z,19.60
2018-09-14T01:58:07.742Z,19.60
2018-09-14T02:00:10.819Z,19.60
2018-09-14T02:02:13.819Z,19.60
2018-09-14T02:04:17.617Z,19.60
2018-09-14T02:06:21.333Z,19.60
2018-09-14T02:08:24.245Z,19.60
2018-09-14T02:10:27.160Z,19.60
2018-09-14T02:12:30.112Z,19.60
2018-09-14T02:14:33.081Z,19.50
2018-09-14T02:16:36.012Z,19.60
2018-09-14T02:18:38.957Z,19.50
2018-09-14T02:20:41.864Z,19.50
2018-09-14T02:22:44.876Z,19.50
2018-09-14T02:24:48.676Z,19.50
2018-09-14T02:26:52.357Z,19.40
2018-09-14T02:28:56.777Z,19.40
2018-09-14T02:31:00.507Z,19.40
2018-09-14T02:33:03.452Z,19.40
2018-09-14T02:35:06.349Z,19.40
2018-09-14T02:37:09.560Z,19.40
2018-09-14T02:39:12.477Z,19.40
2018-09-14T02:41:15.382Z,19.40
2018-09-14T02:43:18.410Z,19.40
2018-09-14T02:45:21.317Z,19.40
2018-09-14T02:47:24.220Z,19.40
2018-09-14T02:49:27.170Z,19.40
2018-09-14T02:51:30.088Z,19.40
2018-09-14T02:53:33.013Z,19.40
2018-09-14T02:55:35.998Z,19.40
2018-09-14T02:57:38.917Z,19.40
2018-09-14T02:59:41.950Z,19.40
2018-09-14T03:01:45.695Z,19.40
2018-09-14T03:03:48.748Z,19.40
2018-09-14T03:05:52.435Z,19.40
2018-09-14T03:07:56.249Z,19.30
2018-09-14T03:09:59.173Z,19.30
2018-09-14T03:12:02.099Z,19.30
2018-09-14T03:14:05.083Z,19.30
2018-09-14T03:16:08.779Z,19.30
2018-09-14T03:18:12.465Z,19.30
2018-09-14T03:20:16.201Z,19.30
2018-09-14T03:22:19.987Z,19.30
2018-09-14T03:24:23.686Z,19.30
2018-09-14T03:26:27.408Z,19.20
2018-09-14T03:28:30.325Z,19.20
2018-09-14T03:30:33.354Z,19.20
2018-09-14T03:32:36.335Z,19.20
2018-09-14T03:34:40.041Z,19.20
2018-09-14T03:36:43.845Z,19.20
2018-09-14T03:38:46.948Z,19.20
2018-09-14T03:40:49.876Z,19.20
2018-09-14T03:42:52.792Z,19.20
2018-09-14T03:44:55.736Z,19.20
2018-09-14T03:46:58.658Z,19.20
2018-09-14T03:49:01.578Z,19.30
2018-09-14T03:51:04.633Z,19.30
2018-09-14T03:53:07.561Z,19.20
2018-09-14T03:55:10.581Z,19.20
2018-09-14T03:57:14.324Z,19.20
2018-09-14T03:59:17.369Z,19.20
2018-09-14T04:01:20.301Z,19.20
2018-09-14T04:03:23.347Z,19.20
2018-09-14T04:05:26.278Z,19.20
2018-09-14T04:07:29.197Z,19.20
2018-09-14T04:09:33.112Z,19.20
2018-09-14T04:11:36.041Z,19.20
2018-09-14T04:13:38.963Z,19.20
2018-09-14T04:15:42.705Z,19.10
2018-09-14T04:17:45.627Z,19.10
2018-09-14T04:19:48.546Z,19.10
2018-09-14T04:21:51.522Z,19.10
2018-09-14T04:23:55.315Z,19.00
2018-09-14T04:25:59.001Z,19.00
2018-09-14T04:28:01.997Z,19.00
2018-09-14T04:30:05.699Z,19.00
2018-09-14T04:32:09.368Z,19.00
2018-09-14T04:34:12.482Z,19.00
2018-09-14T04:36:16.145Z,19.00
2018-09-14T04:38:19.176Z,19.00
2018-09-14T04:40:22.150Z,18.90
2018-09-14T04:42:25.825Z,19.00
2018-09-14T04:44:28.748Z,18.90
2018-09-14T04:46:31.826Z,18.90
2018-09-14T04:48:34.777Z,18.90
2018-09-14T04:50:38.517Z,18.90
2018-09-14T04:52:41.469Z,18.90
2018-09-14T04:54:44.430Z,18.90
2018-09-14T04:56:47.347Z,18.90
2018-09-14T04:58:51.169Z,18.90
2018-09-14T05:00:54.095Z,18.90
2018-09-14T05:02:57.030Z,18.90
2018-09-14T05:04:59.992Z,18.90
2018-09-14T05:07:03.667Z,18.90
2018-09-14T05:11:11.633Z,18.90
2018-09-14T05:13:14.544Z,18.90
2018-09-14T05:15:17.453Z,18.90
2018-09-14T05:17:21.169Z,18.90
2018-09-14T05:19:24.867Z,18.90
2018-09-14T05:21:28.548Z,18.90
2018-09-14T05:23:32.786Z,18.90
2018-09-14T05:25:36.501Z,18.90
2018-09-14T05:27:39.412Z,18.90
2018-09-14T05:29:42.366Z,18.90
2018-09-14T05:31:45.281Z,19.00
2018-09-14T05:33:49.098Z,19.00
2018-09-14T05:35:52.213Z,19.00
2018-09-14T05:37:55.885Z,19.00
2018-09-14T05:39:58.897Z,19.00
2018-09-14T05:42:02.689Z,19.00
2018-09-14T05:44:06.364Z,19.00
2018-09-14T05:46:09.382Z,19.00
2018-09-14T05:48:13.175Z,19.00
2018-09-14T05:50:16.082Z,19.00
2018-09-14T05:52:19.001Z,19.00
2018-09-14T05:54:22.072Z,19.00
2018-09-14T05:56:24.984Z,19.00
2018-09-14T05:58:28.006Z,19.00
2018-09-14T06:00:31.710Z,18.90
2018-09-14T06:02:34.630Z,18.90
2018-09-14T06:04:37.561Z,19.00
2018-09-14T06:06:41.328Z,19.00
2018-09-14T06:08:44.233Z,18.90
2018-09-14T06:10:47.908Z,19.00
2018-09-14T06:12:50.918Z,19.00
2018-09-14T06:14:53.909Z,19.00
2018-09-14T06:16:57.608Z,19.00
2018-09-14T06:19:01.311Z,19.00
2018-09-14T06:21:04.989Z,19.00
2018-09-14T06:23:07.951Z,19.00
2018-09-14T06:25:11.078Z,19.00
2018-09-14T06:27:14.882Z,19.10
2018-09-14T06:29:18.580Z,19.10
2018-09-14T06:31:22.294Z,19.10
2018-09-14T06:33:25.217Z,19.10
2018-09-14T06:35:28.144Z,19.10
2018-09-14T06:37:31.864Z,19.20
2018-09-14T06:39:34.797Z,19.20
2018-09-14T06:41:37.734Z,19.20
2018-09-14T06:43:40.717Z,19.20
2018-09-14T06:45:43.649Z,19.20
2018-09-14T06:47:46.572Z,19.20
2018-09-14T06:49:49.526Z,19.20
2018-09-14T06:51:53.214Z,19.20
2018-09-14T06:53:56.181Z,19.20
2018-09-14T06:55:59.153Z,19.20
2018-09-14T06:58:02.073Z,19.30
2018-09-14T07:00:05.821Z,19.30
2018-09-14T07:02:08.909Z,19.30
2018-09-14T07:04:11.832Z,19.30
2018-09-14T07:06:15.560Z,19.40
2018-09-14T07:08:19.361Z,19.40
2018-09-14T07:10:23.158Z,19.40
2018-09-14T07:12:26.830Z,19.40
2018-09-14T07:14:29.788Z,19.40
2018-09-14T07:16:32.722Z,19.40
2018-09-14T07:18:36.397Z,19.50
2018-09-14T07:20:40.949Z,19.50
2018-09-14T07:22:44.639Z,19.50
2018-09-14T07:24:48.457Z,19.50
2018-09-14T07:26:52.055Z,19.60
2018-09-14T07:28:55.074Z,19.50
2018-09-14T07:30:57.943Z,19.60
2018-09-14T07:33:00.898Z,19.60
2018-09-14T07:35:04.688Z,19.60
2018-09-14T07:37:08.457Z,19.70
2018-09-14T07:39:13.110Z,19.70
2018-09-14T07:41:16.802Z,19.70
2018-09-14T07:43:20.496Z,19.80
2018-09-14T07:45:23.449Z,19.80
2018-09-14T07:47:26.477Z,19.80
2018-09-14T07:49:30.280Z,19.90
2018-09-14T07:51:34.086Z,19.90
2018-09-14T07:53:37.883Z,20.00
2018-09-14T07:55:41.549Z,20.00
2018-09-14T07:57:44.626Z,20.00
2018-09-14T07:59:47.563Z,20.10
2018-09-14T08:01:50.506Z,20.10
2018-09-14T08:03:54.973Z,20.20
2018-09-14T08:05:57.891Z,20.20
2018-09-14T08:08:00.827Z,20.30
2018-09-14T08:10:03.769Z,20.30
2018-09-14T08:12:08.197Z,20.30
2018-09-14T08:14:11.905Z,20.40
2018-09-14T08:16:15.637Z,20.40
2018-09-14T08:18:18.558Z,20.40
2018-09-14T08:20:21.521Z,20.40
2018-09-14T08:22:24.578Z,20.50
2018-09-14T08:24:28.262Z,20.50
2018-09-14T08:26:32.064Z,20.50
2018-09-14T08:28:35.880Z,20.60
2018-09-14T08:30:38.784Z,20.60
2018-09-14T08:32:41.706Z,20.60
2018-09-14T08:34:44.829Z,20.70
2018-09-14T08:36:47.749Z,20.70
2018-09-14T08:38:50.781Z,20.70
2018-09-14T08:40:54.515Z,20.70
2018-09-14T08:42:57.643Z,20.70
2018-09-14T08:45:00.553Z,20.70
2018-09-14T08:47:04.482Z,20.70
2018-09-14T08:49:07.409Z,20.70
2018-09-14T08:51:11.833Z,20.70
2018-09-14T08:53:15.661Z,20.60
2018-09-14T08:55:19.359Z,20.60
2018-09-14T08:57:23.032Z,20.60
2018-09-14T08:59:25.996Z,20.60
2018-09-14T09:01:29.022Z,20.60
2018-09-14T09:03:33.530Z,20.50
2018-09-14T09:05:38.024Z,20.50
2018-09-14T09:07:40.953Z,20.50
2018-09-14T09:09:43.872Z,20.50
2018-09-14T09:11:46.827Z,20.50
2018-09-14T09:13:49.745Z,20.40
2018-09-14T09:15:52.770Z,20.50
2018-09-14T09:17:57.239Z,20.40
2018-09-14T09:20:00.273Z,20.50
2018-09-14T09:22:04.073Z,20.50
2018-09-14T09:24:07.177Z,20.50
2018-09-14T09:26:10.129Z,20.50
2018-09-14T09:28:14.533Z,20.60
2018-09-14T09:30:18.992Z,20.60
2018-09-14T09:32:21.907Z,20.60
2018-09-14T09:34:24.816Z,20.70
2018-09-14T09:36:28.642Z,20.70
2018-09-14T09:38:32.329Z,20.70
2018-09-14T09:40:36.020Z,20.80
2018-09-14T09:42:38.963Z,20.70
2018-09-14T09:44:41.898Z,20.80
2018-09-14T09:46:45.665Z,20.90
2018-09-14T09:48:48.612Z,20.90
2018-09-14T09:50:51.583Z,21.00
2018-09-14T09:52:54.465Z,21.00
2018-09-14T09:54:57.409Z,21.10
2018-09-14T09:57:00.331Z,21.20
2018-09-14T09:59:03.255Z,21.20
2018-09-14T10:01:06.201Z,21.30
2018-09-14T10:03:09.126Z,21.30
2018-09-14T10:05:12.048Z,21.40
2018-09-14T10:07:15.763Z,21.40
2018-09-14T10:09:18.720Z,21.40
2018-09-14T10:11:22.405Z,21.50
2018-09-14T10:13:26.201Z,21.60
2018-09-14T10:15:29.120Z,21.60
2018-09-14T10:17:32.793Z,21.70
2018-09-14T10:19:36.509Z,21.80
2018-09-14T10:21:39.442Z,21.80
2018-09-14T10:23:42.473Z,21.80
2018-09-14T10:25:46.182Z,21.90
2018-09-14T10:27:49.103Z,21.90
2018-09-14T10:29:52.879Z,22.00
2018-09-14T10:31:55.863Z,22.00
2018-09-14T10:33:58.833Z,22.00
2018-09-14T10:36:01.805Z,22.00
2018-09-14T10:38:05.609Z,22.10
2018-09-14T10:40:09.306Z,22.10
2018-09-14T10:42:13.008Z,22.20
2018-09-14T10:44:16.730Z,22.20
2018-09-14T10:46:20.442Z,22.20
2018-09-14T10:48:23.357Z,22.30
2018-09-14T10:50:26.324Z,22.30
2018-09-14T10:52:29.245Z,22.40
2018-09-14T10:54:32.923Z,22.40
2018-09-14T10:56:35.913Z,22.40
2018-09-14T10:58:38.851Z,22.40
2018-09-14T11:00:41.804Z,22.40
2018-09-14T11:02:45.513Z,22.40
2018-09-14T11:04:48.440Z,22.40
2018-09-14T11:06:51.539Z,22.40
2018-09-14T11:08:54.556Z,22.50
2018-09-14T11:10:58.253Z,22.50
2018-09-14T11:13:02.029Z,22.60
2018-09-14T11:15:05.660Z,22.60
2018-09-14T11:17:08.688Z,22.60
2018-09-14T11:19:11.622Z,22.70
2018-09-14T11:21:14.709Z,22.70
2018-09-14T11:23:17.641Z,22.80
2018-09-14T11:25:20.716Z,22.80
2018-09-14T11:27:23.665Z,22.90
2018-09-14T11:29:26.590Z,22.90
2018-09-14T11:31:29.496Z,23.00
2018-09-14T11:33:32.453Z,23.10
2018-09-14T11:35:35.481Z,23.10
2018-09-14T11:37:39.205Z,23.20
2018-09-14T11:39:42.893Z,23.20
2018-09-14T11:41:45.837Z,23.20
2018-09-14T11:43:48.850Z,23.30
2018-09-14T11:45:52.604Z,23.40
2018-09-14T11:47:55.499Z,23.30
2018-09-14T11:49:59.926Z,23.40
2018-09-14T11:52:02.891Z,23.40
2018-09-14T11:54:05.833Z,23.40
2018-09-14T11:56:08.748Z,23.40
2018-09-14T11:58:11.815Z,23.40
2018-09-14T12:00:14.736Z,23.40
2018-09-14T12:02:19.284Z,23.40
2018-09-14T12:04:23.229Z,23.40
2018-09-14T12:06:26.966Z,23.40
2018-09-14T12:08:29.878Z,23.30
2018-09-14T12:10:32.825Z,23.30
2018-09-14T12:12:35.748Z,23.30
2018-09-14T12:14:38.660Z,23.30
2018-09-14T12:16:41.904Z,23.30
2018-09-14T12:18:45.584Z,23.30
2018-09-14T12:20:49.269Z,23.30
2018-09-14T12:22:52.253Z,23.30
2018-09-14T12:24:55.178Z,23.30
2018-09-14T12:26:58.093Z,23.30
2018-09-14T12:29:02.717Z,23.30
2018-09-14T12:31:06.872Z,23.30
2018-09-14T12:33:10.978Z,23.30
2018-09-14T12:35:14.969Z,23.30
2018-09-14T12:37:19.888Z,23.40
2018-09-14T12:39:22.885Z,23.30
2018-09-14T12:41:26.114Z,23.40
2018-09-14T12:43:29.038Z,23.30
2018-09-14T12:45:32.141Z,23.30
2018-09-14T12:47:35.330Z,23.30
2018-09-14T12:49:39.013Z,23.30
2018-09-14T12:51:42.035Z,23.30
2018-09-14T12:53:45.799Z,23.30
2018-09-14T12:55:49.090Z,23.30
2018-09-14T12:57:52.378Z,23.30
2018-09-14T12:59:55.620Z,23.30
2018-09-14T13:01:58.534Z,23.30
2018-09-14T13:04:01.503Z,23.30
2018-09-14T13:06:04.553Z,23.30
2018-09-14T13:08:08.238Z,23.40
2018-09-14T13:10:11.154Z,23.40
2018-09-14T13:12:14.121Z,23.40
2018-09-14T13:14:17.821Z,23.40
2018-09-14T13:16:21.515Z,23.40
2018-09-14T13:18:25.342Z,23.40
2018-09-14T13:20:28.269Z,23.40
2018-09-14T13:22:31.707Z,23.40
2018-09-14T13:24:34.963Z,23.40
2018-09-14T13:26:37.890Z,23.50
2018-09-14T13:28:41.761Z,23.50
2018-09-14T13:30:45.573Z,23.50
2018-09-14T13:32:49.249Z,23.60
2018-09-14T13:34:52.173Z,23.60
2018-09-14T13:36:55.341Z,23.60
2018-09-14T13:38:59.023Z,23.70
2018-09-14T13:41:02.708Z,23.80
2018-09-14T13:43:05.836Z,23.70
2018-09-14T13:45:08.761Z,23.80
2018-09-14T13:47:13.217Z,23.90
2018-09-14T13:49:16.263Z,23.90
2018-09-14T13:51:19.293Z,24.00
2018-09-14T13:53:22.964Z,24.10
2018-09-14T13:55:25.916Z,24.00
2018-09-14T13:57:28.828Z,24.10
2018-09-14T13:59:31.780Z,24.10
2018-09-14T14:01:34.830Z,24.10
2018-09-14T14:03:37.754Z,24.10
2018-09-14T14:05:40.660Z,24.20
2018-09-14T14:07:43.617Z,24.20
2018-09-14T14:09:46.566Z,24.20
2018-09-14T14:11:49.486Z,24.20
2018-09-14T14:13:52.658Z,24.20
2018-09-14T14:15:55.589Z,24.20
2018-09-14T14:17:59.283Z,24.30
2018-09-14T14:20:03.040Z,24.30
2018-09-14T14:22:05.971Z,24.30
2018-09-14T14:24:09.686Z,24.30
2018-09-14T14:26:13.409Z,24.30
2018-09-14T14:28:16.329Z,24.30
2018-09-14T14:30:19.266Z,24.30
2018-09-14T14:32:22.338Z,24.30
2018-09-14T14:34:26.139Z,24.30
2018-09-14T14:36:29.829Z,24.30
2018-09-14T14:38:33.678Z,24.30
2018-09-14T14:40:37.073Z,24.30
2018-09-14T14:42:40.857Z,24.30
2018-09-14T14:44:43.801Z,24.30
2018-09-14T14:46:47.520Z,24.30
2018-09-14T14:48:50.459Z,24.30
2018-09-14T14:50:53.545Z,24.30
2018-09-14T14:52:56.513Z,24.30
2018-09-14T14:54:59.433Z,24.30
2018-09-14T14:57:03.254Z,24.30
2018-09-14T14:59:06.929Z,24.20
2018-09-14T15:01:11.384Z,24.20
2018-09-14T15:03:14.453Z,24.20
2018-09-14T15:05:18.126Z,24.20
2018-09-14T15:07:21.049Z,24.30
2018-09-14T15:09:24.124Z,24.20
2018-09-14T15:11:27.041Z,24.20
2018-09-14T15:13:29.980Z,24.20
2018-09-14T15:15:33.711Z,24.10
2018-09-14T15:17:36.880Z,24.10
2018-09-14T15:19:40.651Z,24.10
2018-09-14T15:21:43.597Z,24.10
2018-09-14T15:23:46.530Z,24.10
2018-09-14T15:25:50.235Z,24.10
2018-09-14T15:27:54.038Z,24.10
2018-09-14T15:29:57.713Z,24.10
2018-09-14T15:32:00.624Z,24.10
2018-09-14T15:34:03.608Z,24.10
2018-09-14T15:36:07.281Z,24.10
2018-09-14T15:38:11.769Z,24.10
2018-09-14T15:40:14.718Z,24.10
2018-09-14T15:42:17.628Z,24.10
2018-09-14T15:44:20.666Z,24.10
2018-09-14T15:46:24.380Z,24.10
2018-09-14T15:48:27.297Z,24.10
2018-09-14T15:50:30.231Z,24.10
2018-09-14T15:52:34.035Z,24.10
2018-09-14T15:54:37.716Z,24.10
2018-09-14T15:56:40.715Z,24.10
2018-09-14T15:58:44.517Z,24.10
2018-09-14T16:00:48.185Z,24.00
2018-09-14T16:02:51.202Z,24.00
2018-09-14T16:04:55.657Z,24.00
2018-09-14T16:06:58.585Z,24.00
2018-09-14T16:09:02.270Z,24.00
2018-09-14T16:11:06.834Z,24.00
2018-09-14T16:13:09.761Z,24.00
2018-09-14T16:15:12.765Z,23.90
2018-09-14T16:17:15.822Z,23.90
2018-09-14T16:19:18.752Z,23.90
2018-09-14T16:21:22.430Z,23.80
2018-09-14T16:23:25.373Z,23.80
2018-09-14T16:25:28.298Z,23.80
2018-09-14T16:27:31.986Z,23.80
2018-09-14T16:29:34.957Z,23.80
2018-09-14T16:31:37.891Z,23.70
2018-09-14T16:33:40.810Z,23.70
2018-09-14T16:35:43.776Z,23.70
2018-09-14T16:37:46.708Z,23.70
2018-09-14T16:39:49.626Z,23.70
2018-09-14T16:41:53.184Z,23.70
2018-09-14T16:43:57.009Z,23.60
2018-09-14T16:45:59.952Z,23.60
2018-09-14T16:48:03.179Z,23.60
2018-09-14T16:50:06.868Z,23.60
2018-09-14T16:52:10.545Z,23.50
2018-09-14T16:54:15.096Z,23.50
2018-09-14T16:56:18.897Z,23.50
2018-09-14T16:58:22.568Z,23.50
2018-09-14T17:00:25.586Z,23.50
2018-09-14T17:02:29.295Z,23.50
2018-09-14T17:04:33.084Z,23.50
2018-09-14T17:06:36.884Z,23.50
2018-09-14T17:08:40.564Z,23.50
2018-09-14T17:10:44.240Z,23.40
2018-09-14T17:12:47.385Z,23.40
2018-09-14T17:14:50.301Z,23.40
2018-09-14T17:16:53.223Z,23.40
2018-09-14T17:18:56.953Z,23.40
2018-09-14T17:21:00.096Z,23.40
2018-09-14T17:23:03.017Z,23.40
2018-09-14T17:25:06.104Z,23.30
2018-09-14T17:27:09.042Z,23.30
2018-09-14T17:29:13.490Z,23.30
2018-09-14T17:31:17.225Z,23.30
2018-09-14T17:33:20.181Z,23.30
2018-09-14T17:35:23.879Z,23.20
2018-09-14T17:37:27.622Z,23.20
2018-09-14T17:39:30.619Z,23.20
2018-09-14T17:41:33.554Z,23.20
2018-09-14T17:43:36.505Z,23.20
2018-09-14T17:45:40.190Z,23.20
2018-09-14T17:47:43.112Z,23.20
2018-09-14T17:49:46.832Z,23.10
2018-09-14T17:51:49.740Z,23.20
2018-09-14T17:53:52.765Z,23.10
2018-09-14T17:55:56.477Z,23.10
2018-09-14T17:57:59.405Z,23.10
2018-09-14T18:00:02.316Z,23.10
2018-09-14T18:02:05.293Z,23.10
2018-09-14T18:04:08.207Z,23.00
2018-09-14T18:06:11.896Z,23.00
2018-09-14T18:08:15.617Z,23.00
2018-09-14T18:10:18.555Z,23.00
2018-09-14T18:12:21.479Z,23.00
2018-09-14T18:14:24.541Z,22.90
2018-09-14T18:16:28.311Z,22.90
2018-09-14T18:18:31.941Z,22.90
2018-09-14T18:20:35.769Z,22.90
2018-09-14T18:22:38.698Z,22.90
2018-09-14T18:24:41.622Z,22.90
2018-09-14T18:26:44.648Z,22.90
2018-09-14T18:28:47.577Z,22.80
2018-09-14T18:30:50.512Z,22.80
2018-09-14T18:32:53.455Z,22.80
2018-09-14T18:34:56.382Z,22.80
2018-09-14T18:36:59.328Z,22.80
2018-09-14T18:39:02.386Z,22.80
2018-09-14T18:41:06.190Z,22.70
2018-09-14T18:43:09.878Z,22.80
2018-09-14T18:45:13.597Z,22.70
2018-09-14T18:47:16.523Z,22.70
2018-09-14T18:49:19.452Z,22.70
2018-09-14T18:51:23.216Z,22.70
2018-09-14T18:53:26.149Z,22.70
2018-09-14T18:55:29.080Z,22.70
2018-09-14T18:57:32.219Z,22.70
2018-09-14T18:59:35.137Z,22.60
2018-09-14T19:01:38.078Z,22.60
2018-09-14T19:03:41.181Z,22.60
2018-09-14T19:05:44.210Z,22.60
2018-09-14T19:07:47.149Z,22.60
2018-09-14T19:09:50.184Z,22.60
2018-09-14T19:11:53.899Z,22.50
2018-09-14T19:13:57.608Z,22.50
2018-09-14T19:16:01.418Z,22.40
2018-09-14T19:18:04.329Z,22.40
2018-09-14T19:20:07.253Z,22.40
2018-09-14T19:22:11.072Z,22.30
2018-09-14T19:24:14.746Z,22.30
2018-09-14T19:26:17.673Z,22.30
2018-09-14T19:28:20.742Z,22.30
2018-09-14T19:30:24.420Z,22.30
2018-09-14T19:32:28.106Z,22.30
2018-09-14T19:34:31.248Z,22.20
2018-09-14T19:36:34.168Z,22.20
2018-09-14T19:38:37.130Z,22.20
2018-09-14T19:40:40.075Z,22.20
2018-09-14T19:42:43.767Z,22.10
2018-09-14T19:44:47.449Z,22.10
2018-09-14T19:46:50.392Z,22.10
2018-09-14T19:48:53.414Z,22.10
2018-09-14T19:50:56.330Z,22.10
2018-09-14T19:53:00.031Z,22.00
2018-09-14T19:55:02.961Z,22.00
2018-09-14T19:57:05.983Z,22.00
2018-09-14T19:59:09.689Z,22.00
2018-09-14T20:01:13.365Z,21.90
2018-09-14T20:03:17.078Z,21.90
2018-09-14T20:05:21.022Z,21.90
2018-09-14T20:07:23.945Z,21.90
2018-09-14T20:09:26.864Z,21.80
2018-09-14T20:11:29.883Z,21.80
2018-09-14T20:13:32.783Z,21.80
2018-09-14T20:15:35.709Z,21.70
2018-09-14T20:17:38.916Z,21.70
2018-09-14T20:19:41.840Z,21.70
2018-09-14T20:21:44.773Z,21.70
2018-09-14T20:23:47.836Z,21.60
2018-09-14T20:25:51.505Z,21.50
2018-09-14T20:27:54.427Z,21.50
2018-09-14T20:29:57.374Z,21.50
2018-09-14T20:32:00.289Z,21.50
2018-09-14T20:34:03.212Z,21.50
2018-09-14T20:36:06.158Z,21.40
2018-09-14T20:38:09.066Z,21.40
2018-09-14T20:40:11.977Z,21.40
2018-09-14T20:42:14.945Z,21.40
2018-09-14T20:44:17.876Z,21.40
2018-09-14T20:46:21.569Z,21.30
2018-09-14T20:48:25.509Z,21.30
2018-09-14T20:50:28.533Z,21.30
2018-09-14T20:52:31.476Z,21.30
2018-09-14T20:54:34.524Z,21.20
2018-09-14T20:56:38.200Z,21.20
2018-09-14T20:58:41.121Z,21.20
2018-09-14T21:00:44.191Z,21.20
2018-09-14T21:02:47.913Z,21.10
2018-09-14T21:04:50.841Z,21.10
2018-09-14T21:06:53.788Z,21.10
2018-09-14T21:08:56.717Z,21.10
2018-09-14T21:11:01.134Z,21.10
2018-09-14T21:13:04.125Z,21.10
2018-09-14T21:15:07.029Z,21.10
2018-09-14T21:17:09.946Z,21.10
2018-09-14T21:19:12.922Z,21.10
2018-09-14T21:21:15.845Z,21.10
2018-09-14T21:23:18.760Z,21.10
2018-09-14T21:25:21.933Z,21.10
2018-09-14T21:27:25.604Z,21.10
2018-09-14T21:29:28.617Z,21.10
2018-09-14T21:31:32.424Z,21.10
2018-09-14T21:33:36.130Z,21.10
2018-09-14T21:35:39.072Z,21.00
2018-09-14T21:37:42.114Z,21.00
2018-09-14T21:39:45.035Z,21.00
2018-09-14T21:41:47.978Z,21.00
2018-09-14T21:43:51.034Z,21.00
2018-09-14T21:45:54.710Z,21.00
2018-09-14T21:47:57.625Z,21.00
2018-09-14T21:50:00.652Z,21.00
2018-09-14T21:52:03.681Z,21.00
2018-09-14T21:54:07.407Z,20.90
2018-09-14T21:56:10.365Z,20.90
2018-09-14T21:58:13.826Z,20.90
2018-09-14T22:00:16.842Z,20.90
2018-09-14T22:02:20.747Z,20.80
2018-09-14T22:04:24.418Z,20.80
2018-09-14T22:06:27.342Z,20.80
2018-09-14T22:08:30.311Z,20.80
2018-09-14T22:10:34.011Z,20.70
2018-09-14T22:12:37.696Z,20.80
2018-09-14T22:14:40.813Z,20.70
2018-09-14T22:16:43.778Z,20.80
2018-09-14T22:18:47.455Z,20.70
2018-09-14T22:20:52.015Z,20.70
2018-09-14T22:22:55.186Z,20.70
2018-09-14T22:24:58.860Z,20.70
2018-09-14T22:27:01.833Z,20.70
2018-09-14T22:29:04.838Z,20.70
2018-09-14T22:31:08.539Z,20.70
2018-09-14T22:33:11.474Z,20.70
2018-09-14T22:35:14.397Z,20.70
2018-09-14T22:37:18.090Z,20.60
2018-09-14T22:39:22.548Z,20.60
2018-09-14T22:41:25.468Z,20.60
2018-09-14T22:43:28.379Z,20.60
2018-09-14T22:45:32.201Z,20.60
2018-09-14T22:47:35.901Z,20.60
2018-09-14T22:49:39.603Z,20.60
2018-09-14T22:51:43.407Z,20.60
2018-09-14T22:53:47.080Z,20.60
2018-09-14T22:55:50.004Z,20.60
2018-09-14T22:57:52.964Z,20.50
2018-09-14T22:59:56.669Z,20.50
2018-09-14T23:02:00.336Z,20.50
2018-09-14T23:04:03.406Z,20.50
2018-09-14T23:06:07.330Z,20.50
2018-09-14T23:08:10.339Z,20.40
2018-09-14T23:10:14.152Z,20.40
2018-09-14T23:12:17.063Z,20.40
2018-09-14T23:14:19.986Z,20.40
2018-09-14T23:16:22.941Z,20.30
2018-09-14T23:18:25.969Z,20.30
2018-09-14T23:20:29.667Z,20.20
2018-09-14T23:22:33.678Z,20.20
2018-09-14T23:24:37.486Z,20.10
2018-09-14T23:26:41.181Z,20.10
2018-09-14T23:28:44.982Z,20.00
2018-09-14T23:30:48.656Z,20.10
2018-09-14T23:32:51.662Z,20.00
2018-09-14T23:34:55.466Z,19.90
2018-09-14T23:36:59.163Z,19.90
2018-09-14T23:39:02.844Z,19.80
2018-09-14T23:41:06.690Z,19.80
2018-09-14T23:43:09.651Z,19.80
2018-09-14T23:45:13.321Z,19.70
2018-09-14T23:47:17.871Z,19.70
2018-09-14T23:49:21.542Z,19.60
2018-09-14T23:51:24.471Z,19.60
2018-09-14T23:53:27.419Z,19.60
2018-09-14T23:55:31.102Z,19.50
2018-09-14T23:57:35.646Z,19.40
2018-09-14T23:59:39.363Z,19.40
